sensor_id;sensor_type;location;lat;lon;timestamp;P1;durP1;ratioP1;P2;durP2;ratioP2
60030;SDS011;45901;47.600;9.890;2023-02-15T00:01:35;13.17;;;7.53;;
60030;SDS011;45901;47.600;9.890;2023-02-15T00:04:03;14.47;;;7.20;;
60030;SDS011;45901;47.600;9.890;2023-02-15T00:06:33;13.27;;;6.50;;
60030;SDS011;45901;47.600;9.890;2023-02-15T00:09:01;12.83;;;6.53;;
60030;SDS011;45901;47.600;9.890;2023-02-15T00:11:29;11.23;;;5.83;;
60030;SDS011;45901;47.600;9.890;2023-02-15T00:14:06;16.87;;;7.27;;
60030;SDS011;45901;47.600;9.890;2023-02-15T00:16:35;11.40;;;6.47;;
60030;SDS011;45901;47.600;9.890;2023-02-15T00:19:03;13.47;;;6.67;;
60030;SDS011;45901;47.600;9.890;2023-02-15T00:21:31;13.60;;;6.77;;
60030;SDS011;45901;47.600;9.890;2023-02-15T00:24:02;13.57;;;6.67;;
60030;SDS011;45901;47.600;9.890;2023-02-15T00:26:31;11.87;;;6.63;;
60030;SDS011;45901;47.600;9.890;2023-02-15T00:28:59;12.87;;;6.50;;
60030;SDS011;45901;47.600;9.890;2023-02-15T00:31:27;13.43;;;6.70;;
60030;SDS011;45901;47.600;9.890;2023-02-15T00:34:00;16.63;;;8.33;;
60030;SDS011;45901;47.600;9.890;2023-02-15T00:36:28;15.20;;;6.77;;
60030;SDS011;45901;47.600;9.890;2023-02-15T00:38:57;16.73;;;8.17;;
60030;SDS011;45901;47.600;9.890;2023-02-15T00:41:24;13.60;;;7.50;;
60030;SDS011;45901;47.600;9.890;2023-02-15T00:43:51;15.70;;;7.63;;
60030;SDS011;45901;47.600;9.890;2023-02-15T00:46:18;13.97;;;7.30;;
60030;SDS011;45901;47.600;9.890;2023-02-15T00:48:46;16.23;;;7.53;;
60030;SDS011;45901;47.600;9.890;2023-02-15T00:51:13;17.43;;;7.57;;
60030;SDS011;45901;47.600;9.890;2023-02-15T00:53:42;15.23;;;7.50;;
60030;SDS011;45901;47.600;9.890;2023-02-15T00:56:11;12.73;;;6.63;;
60030;SDS011;45901;47.600;9.890;2023-02-15T00:58:38;17.07;;;7.70;;
60030;SDS011;45901;47.600;9.890;2023-02-15T01:01:06;13.80;;;7.80;;
60030;SDS011;45901;47.600;9.890;2023-02-15T01:03:35;14.83;;;7.30;;
60030;SDS011;45901;47.600;9.890;2023-02-15T01:06:03;15.10;;;6.57;;
60030;SDS011;45901;47.600;9.890;2023-02-15T01:08:31;15.00;;;6.63;;
60030;SDS011;45901;47.600;9.890;2023-02-15T01:11:02;16.07;;;6.93;;
60030;SDS011;45901;47.600;9.890;2023-02-15T01:13:32;15.50;;;6.83;;
60030;SDS011;45901;47.600;9.890;2023-02-15T01:15:59;15.33;;;6.90;;
60030;SDS011;45901;47.600;9.890;2023-02-15T01:18:27;13.67;;;6.77;;
60030;SDS011;45901;47.600;9.890;2023-02-15T01:20:55;11.37;;;6.07;;
60030;SDS011;45901;47.600;9.890;2023-02-15T01:23:22;13.17;;;6.90;;
60030;SDS011;45901;47.600;9.890;2023-02-15T01:25:49;16.23;;;7.20;;
60030;SDS011;45901;47.600;9.890;2023-02-15T01:28:17;14.10;;;6.53;;
60030;SDS011;45901;47.600;9.890;2023-02-15T01:30:45;16.63;;;7.63;;
60030;SDS011;45901;47.600;9.890;2023-02-15T01:33:12;14.40;;;7.63;;
60030;SDS011;45901;47.600;9.890;2023-02-15T01:35:43;22.47;;;10.03;;
60030;SDS011;45901;47.600;9.890;2023-02-15T01:38:11;18.60;;;8.23;;
60030;SDS011;45901;47.600;9.890;2023-02-15T01:40:39;16.47;;;8.33;;
60030;SDS011;45901;47.600;9.890;2023-02-15T01:43:09;15.97;;;7.77;;
60030;SDS011;45901;47.600;9.890;2023-02-15T01:45:37;13.27;;;6.03;;
60030;SDS011;45901;47.600;9.890;2023-02-15T01:48:13;15.90;;;6.90;;
60030;SDS011;45901;47.600;9.890;2023-02-15T01:50:48;12.70;;;7.17;;
60030;SDS011;45901;47.600;9.890;2023-02-15T01:53:20;12.33;;;6.73;;
60030;SDS011;45901;47.600;9.890;2023-02-15T01:55:53;14.97;;;6.57;;
60030;SDS011;45901;47.600;9.890;2023-02-15T01:58:25;16.30;;;7.17;;
60030;SDS011;45901;47.600;9.890;2023-02-15T02:00:55;14.60;;;6.67;;
60030;SDS011;45901;47.600;9.890;2023-02-15T02:03:30;13.40;;;6.70;;
60030;SDS011;45901;47.600;9.890;2023-02-15T02:06:08;14.00;;;5.67;;
60030;SDS011;45901;47.600;9.890;2023-02-15T02:08:37;12.13;;;6.43;;
60030;SDS011;45901;47.600;9.890;2023-02-15T02:11:09;11.60;;;6.07;;
60030;SDS011;45901;47.600;9.890;2023-02-15T02:13:37;10.47;;;5.77;;
60030;SDS011;45901;47.600;9.890;2023-02-15T02:16:08;12.50;;;5.33;;
60030;SDS011;45901;47.600;9.890;2023-02-15T02:18:46;12.33;;;6.10;;
60030;SDS011;45901;47.600;9.890;2023-02-15T02:21:50;13.80;;;6.27;;
60030;SDS011;45901;47.600;9.890;2023-02-15T02:25:04;12.87;;;5.87;;
60030;SDS011;45901;47.600;9.890;2023-02-15T02:27:55;13.80;;;5.13;;
60030;SDS011;45901;47.600;9.890;2023-02-15T02:30:44;13.07;;;5.93;;
60030;SDS011;45901;47.600;9.890;2023-02-15T02:36:29;9.90;;;5.37;;
60030;SDS011;45901;47.600;9.890;2023-02-15T02:39:07;11.70;;;4.50;;
60030;SDS011;45901;47.600;9.890;2023-02-15T02:41:47;10.60;;;5.37;;
60030;SDS011;45901;47.600;9.890;2023-02-15T02:44:23;10.30;;;5.27;;
60030;SDS011;45901;47.600;9.890;2023-02-15T02:46:57;8.60;;;4.50;;
60030;SDS011;45901;47.600;9.890;2023-02-15T02:49:33;10.83;;;4.67;;
60030;SDS011;45901;47.600;9.890;2023-02-15T02:52:03;8.67;;;3.90;;
60030;SDS011;45901;47.600;9.890;2023-02-15T02:54:32;8.67;;;3.70;;
60030;SDS011;45901;47.600;9.890;2023-02-15T02:57:02;7.83;;;4.20;;
60030;SDS011;45901;47.600;9.890;2023-02-15T02:59:35;5.47;;;3.10;;
60030;SDS011;45901;47.600;9.890;2023-02-15T03:02:09;6.93;;;3.50;;
60030;SDS011;45901;47.600;9.890;2023-02-15T03:04:45;8.53;;;3.67;;
60030;SDS011;45901;47.600;9.890;2023-02-15T03:07:23;6.40;;;3.50;;
60030;SDS011;45901;47.600;9.890;2023-02-15T03:09:54;6.20;;;3.90;;
60030;SDS011;45901;47.600;9.890;2023-02-15T03:12:26;6.33;;;3.40;;
60030;SDS011;45901;47.600;9.890;2023-02-15T03:14:57;8.00;;;2.93;;
60030;SDS011;45901;47.600;9.890;2023-02-15T03:17:31;9.10;;;4.03;;
60030;SDS011;45901;47.600;9.890;2023-02-15T03:20:03;6.67;;;3.77;;
60030;SDS011;45901;47.600;9.890;2023-02-15T03:22:35;8.57;;;3.27;;
60030;SDS011;45901;47.600;9.890;2023-02-15T03:25:09;7.83;;;3.57;;
60030;SDS011;45901;47.600;9.890;2023-02-15T03:27:42;8.47;;;3.80;;
60030;SDS011;45901;47.600;9.890;2023-02-15T03:30:15;5.67;;;3.00;;
60030;SDS011;45901;47.600;9.890;2023-02-15T03:32:47;6.37;;;3.43;;
60030;SDS011;45901;47.600;9.890;2023-02-15T03:35:18;9.70;;;3.63;;
60030;SDS011;45901;47.600;9.890;2023-02-15T03:37:51;6.03;;;3.37;;
60030;SDS011;45901;47.600;9.890;2023-02-15T03:40:26;6.50;;;3.67;;
60030;SDS011;45901;47.600;9.890;2023-02-15T03:43:16;5.80;;;3.30;;
60030;SDS011;45901;47.600;9.890;2023-02-15T03:45:49;8.73;;;3.43;;
60030;SDS011;45901;47.600;9.890;2023-02-15T03:48:22;5.60;;;3.27;;
60030;SDS011;45901;47.600;9.890;2023-02-15T03:50:58;5.23;;;3.20;;
60030;SDS011;45901;47.600;9.890;2023-02-15T03:53:47;5.97;;;3.07;;
60030;SDS011;45901;47.600;9.890;2023-02-15T03:56:16;8.93;;;3.33;;
60030;SDS011;45901;47.600;9.890;2023-02-15T03:58:43;5.97;;;3.00;;
60030;SDS011;45901;47.600;9.890;2023-02-15T04:01:31;7.77;;;3.10;;
60030;SDS011;45901;47.600;9.890;2023-02-15T04:04:25;6.07;;;2.83;;
60030;SDS011;45901;47.600;9.890;2023-02-15T04:06:59;7.13;;;2.90;;
60030;SDS011;45901;47.600;9.890;2023-02-15T04:09:27;6.83;;;3.57;;
60030;SDS011;45901;47.600;9.890;2023-02-15T04:12:12;6.97;;;3.47;;
60030;SDS011;45901;47.600;9.890;2023-02-15T04:14:39;6.63;;;3.70;;
60030;SDS011;45901;47.600;9.890;2023-02-15T04:17:24;7.10;;;3.23;;
60030;SDS011;45901;47.600;9.890;2023-02-15T04:19:51;7.63;;;2.70;;
60030;SDS011;45901;47.600;9.890;2023-02-15T04:22:37;5.43;;;2.73;;
60030;SDS011;45901;47.600;9.890;2023-02-15T04:25:21;5.07;;;2.70;;
60030;SDS011;45901;47.600;9.890;2023-02-15T04:27:49;5.90;;;2.90;;
60030;SDS011;45901;47.600;9.890;2023-02-15T04:30:18;5.77;;;3.37;;
60030;SDS011;45901;47.600;9.890;2023-02-15T04:32:47;7.03;;;2.90;;
60030;SDS011;45901;47.600;9.890;2023-02-15T04:35:15;5.73;;;2.77;;
60030;SDS011;45901;47.600;9.890;2023-02-15T04:37:44;6.67;;;3.17;;
60030;SDS011;45901;47.600;9.890;2023-02-15T04:40:12;5.80;;;2.60;;
60030;SDS011;45901;47.600;9.890;2023-02-15T04:42:40;9.33;;;3.83;;
60030;SDS011;45901;47.600;9.890;2023-02-15T04:45:08;8.03;;;3.93;;
60030;SDS011;45901;47.600;9.890;2023-02-15T04:47:35;9.00;;;4.33;;
60030;SDS011;45901;47.600;9.890;2023-02-15T04:50:02;6.87;;;3.70;;
60030;SDS011;45901;47.600;9.890;2023-02-15T04:52:31;8.53;;;4.10;;
60030;SDS011;45901;47.600;9.890;2023-02-15T04:55:00;8.17;;;4.20;;
60030;SDS011;45901;47.600;9.890;2023-02-15T04:57:27;9.37;;;5.00;;
60030;SDS011;45901;47.600;9.890;2023-02-15T04:59:54;7.87;;;4.27;;
60030;SDS011;45901;47.600;9.890;2023-02-15T05:02:22;9.80;;;4.77;;
60030;SDS011;45901;47.600;9.890;2023-02-15T05:04:49;7.47;;;4.90;;
60030;SDS011;45901;47.600;9.890;2023-02-15T05:07:16;7.83;;;4.63;;
60030;SDS011;45901;47.600;9.890;2023-02-15T05:09:45;8.37;;;4.90;;
60030;SDS011;45901;47.600;9.890;2023-02-15T05:12:13;9.50;;;4.40;;
60030;SDS011;45901;47.600;9.890;2023-02-15T05:14:41;10.30;;;4.40;;
60030;SDS011;45901;47.600;9.890;2023-02-15T05:17:08;8.40;;;3.73;;
60030;SDS011;45901;47.600;9.890;2023-02-15T05:19:35;9.63;;;4.37;;
60030;SDS011;45901;47.600;9.890;2023-02-15T05:22:02;8.00;;;3.77;;
60030;SDS011;45901;47.600;9.890;2023-02-15T05:24:29;7.57;;;3.57;;
60030;SDS011;45901;47.600;9.890;2023-02-15T05:27:15;6.90;;;3.37;;
60030;SDS011;45901;47.600;9.890;2023-02-15T05:30:14;7.07;;;3.70;;
60030;SDS011;45901;47.600;9.890;2023-02-15T05:32:41;7.60;;;4.10;;
60030;SDS011;45901;47.600;9.890;2023-02-15T05:35:11;7.87;;;3.63;;
60030;SDS011;45901;47.600;9.890;2023-02-15T05:37:40;7.10;;;3.53;;
60030;SDS011;45901;47.600;9.890;2023-02-15T05:40:08;6.80;;;3.10;;
60030;SDS011;45901;47.600;9.890;2023-02-15T05:42:37;7.83;;;3.90;;
60030;SDS011;45901;47.600;9.890;2023-02-15T05:45:05;9.00;;;3.80;;
60030;SDS011;45901;47.600;9.890;2023-02-15T05:47:33;7.90;;;4.13;;
60030;SDS011;45901;47.600;9.890;2023-02-15T05:50:00;9.43;;;4.53;;
60030;SDS011;45901;47.600;9.890;2023-02-15T05:52:27;12.53;;;5.67;;
60030;SDS011;45901;47.600;9.890;2023-02-15T05:54:54;12.93;;;5.30;;
60030;SDS011;45901;47.600;9.890;2023-02-15T05:57:23;14.53;;;6.43;;
60030;SDS011;45901;47.600;9.890;2023-02-15T05:59:51;16.10;;;7.27;;
60030;SDS011;45901;47.600;9.890;2023-02-15T06:02:19;18.70;;;7.43;;
60030;SDS011;45901;47.600;9.890;2023-02-15T06:04:46;18.10;;;8.23;;
60030;SDS011;45901;47.600;9.890;2023-02-15T06:07:13;20.20;;;7.97;;
60030;SDS011;45901;47.600;9.890;2023-02-15T06:09:40;20.73;;;9.53;;
60030;SDS011;45901;47.600;9.890;2023-02-15T06:12:07;20.33;;;8.50;;
60030;SDS011;45901;47.600;9.890;2023-02-15T06:14:34;17.33;;;8.40;;
60030;SDS011;45901;47.600;9.890;2023-02-15T06:17:03;16.97;;;8.00;;
60030;SDS011;45901;47.600;9.890;2023-02-15T06:19:30;18.97;;;9.30;;
60030;SDS011;45901;47.600;9.890;2023-02-15T06:21:57;22.57;;;8.43;;
60030;SDS011;45901;47.600;9.890;2023-02-15T06:24:24;19.37;;;8.93;;
60030;SDS011;45901;47.600;9.890;2023-02-15T06:26:52;18.73;;;8.40;;
60030;SDS011;45901;47.600;9.890;2023-02-15T06:29:19;22.77;;;8.33;;
60030;SDS011;45901;47.600;9.890;2023-02-15T06:31:46;17.33;;;7.47;;
60030;SDS011;45901;47.600;9.890;2023-02-15T06:34:14;19.83;;;8.80;;
60030;SDS011;45901;47.600;9.890;2023-02-15T06:36:42;21.37;;;8.17;;
60030;SDS011;45901;47.600;9.890;2023-02-15T06:39:09;21.37;;;9.03;;
60030;SDS011;45901;47.600;9.890;2023-02-15T06:41:36;20.23;;;9.17;;
60030;SDS011;45901;47.600;9.890;2023-02-15T06:44:04;19.17;;;8.90;;
60030;SDS011;45901;47.600;9.890;2023-02-15T06:46:31;19.77;;;9.00;;
60030;SDS011;45901;47.600;9.890;2023-02-15T06:48:58;20.90;;;9.87;;
60030;SDS011;45901;47.600;9.890;2023-02-15T06:51:27;26.93;;;10.60;;
60030;SDS011;45901;47.600;9.890;2023-02-15T06:53:54;24.13;;;11.37;;
60030;SDS011;45901;47.600;9.890;2023-02-15T06:56:21;20.67;;;9.93;;
60030;SDS011;45901;47.600;9.890;2023-02-15T06:58:48;22.73;;;9.83;;
60030;SDS011;45901;47.600;9.890;2023-02-15T07:01:15;22.47;;;8.67;;
60030;SDS011;45901;47.600;9.890;2023-02-15T07:03:43;16.27;;;8.47;;
60030;SDS011;45901;47.600;9.890;2023-02-15T07:06:10;21.00;;;8.73;;
60030;SDS011;45901;47.600;9.890;2023-02-15T07:08:39;15.07;;;8.13;;
60030;SDS011;45901;47.600;9.890;2023-02-15T07:11:06;20.60;;;8.07;;
60030;SDS011;45901;47.600;9.890;2023-02-15T07:13:51;15.13;;;6.97;;
60030;SDS011;45901;47.600;9.890;2023-02-15T07:16:18;15.70;;;6.73;;
60030;SDS011;45901;47.600;9.890;2023-02-15T07:18:47;18.07;;;7.20;;
60030;SDS011;45901;47.600;9.890;2023-02-15T07:21:14;15.90;;;7.43;;
60030;SDS011;45901;47.600;9.890;2023-02-15T07:23:42;15.83;;;7.60;;
60030;SDS011;45901;47.600;9.890;2023-02-15T07:26:10;14.30;;;8.07;;
60030;SDS011;45901;47.600;9.890;2023-02-15T07:28:37;15.70;;;7.77;;
60030;SDS011;45901;47.600;9.890;2023-02-15T07:31:04;14.53;;;6.07;;
60030;SDS011;45901;47.600;9.890;2023-02-15T07:33:32;12.43;;;6.07;;
60030;SDS011;45901;47.600;9.890;2023-02-15T07:36:01;11.80;;;5.93;;
60030;SDS011;45901;47.600;9.890;2023-02-15T07:38:31;10.77;;;5.57;;
60030;SDS011;45901;47.600;9.890;2023-02-15T07:41:02;13.37;;;6.23;;
60030;SDS011;45901;47.600;9.890;2023-02-15T07:43:32;13.47;;;6.80;;
60030;SDS011;45901;47.600;9.890;2023-02-15T07:46:01;19.13;;;8.23;;
60030;SDS011;45901;47.600;9.890;2023-02-15T07:48:30;18.30;;;7.83;;
60030;SDS011;45901;47.600;9.890;2023-02-15T07:50:58;20.03;;;8.40;;
60030;SDS011;45901;47.600;9.890;2023-02-15T07:53:26;18.67;;;9.83;;
60030;SDS011;45901;47.600;9.890;2023-02-15T07:55:53;23.80;;;12.50;;
60030;SDS011;45901;47.600;9.890;2023-02-15T07:58:25;21.67;;;10.43;;
60030;SDS011;45901;47.600;9.890;2023-02-15T08:01:12;15.60;;;7.80;;
60030;SDS011;45901;47.600;9.890;2023-02-15T08:03:40;18.10;;;7.77;;
60030;SDS011;45901;47.600;9.890;2023-02-15T08:06:07;10.60;;;5.63;;
60030;SDS011;45901;47.600;9.890;2023-02-15T08:08:36;9.37;;;4.60;;
60030;SDS011;45901;47.600;9.890;2023-02-15T08:11:05;7.40;;;3.53;;
60030;SDS011;45901;47.600;9.890;2023-02-15T08:13:56;4.97;;;2.50;;
60030;SDS011;45901;47.600;9.890;2023-02-15T08:16:26;4.43;;;1.90;;
60030;SDS011;45901;47.600;9.890;2023-02-15T08:18:56;6.00;;;2.40;;
60030;SDS011;45901;47.600;9.890;2023-02-15T08:21:26;5.23;;;1.77;;
60030;SDS011;45901;47.600;9.890;2023-02-15T08:23:54;4.70;;;1.90;;
60030;SDS011;45901;47.600;9.890;2023-02-15T08:26:23;9.63;;;1.60;;
60030;SDS011;45901;47.600;9.890;2023-02-15T08:28:51;4.30;;;1.40;;
60030;SDS011;45901;47.600;9.890;2023-02-15T08:31:20;3.87;;;1.60;;
60030;SDS011;45901;47.600;9.890;2023-02-15T08:33:48;3.20;;;1.60;;
60030;SDS011;45901;47.600;9.890;2023-02-15T08:36:17;3.37;;;1.30;;
60030;SDS011;45901;47.600;9.890;2023-02-15T08:38:46;4.10;;;1.73;;
60030;SDS011;45901;47.600;9.890;2023-02-15T08:41:14;2.40;;;1.37;;
60030;SDS011;45901;47.600;9.890;2023-02-15T08:43:44;3.00;;;1.20;;
60030;SDS011;45901;47.600;9.890;2023-02-15T08:46:13;3.00;;;1.53;;
60030;SDS011;45901;47.600;9.890;2023-02-15T08:48:43;4.07;;;1.80;;
60030;SDS011;45901;47.600;9.890;2023-02-15T08:51:11;3.13;;;1.33;;
60030;SDS011;45901;47.600;9.890;2023-02-15T08:53:41;3.20;;;1.47;;
60030;SDS011;45901;47.600;9.890;2023-02-15T08:56:10;6.20;;;2.30;;
60030;SDS011;45901;47.600;9.890;2023-02-15T08:58:38;6.20;;;1.57;;
60030;SDS011;45901;47.600;9.890;2023-02-15T09:01:09;2.53;;;1.47;;
60030;SDS011;45901;47.600;9.890;2023-02-15T09:03:37;2.93;;;1.60;;
60030;SDS011;45901;47.600;9.890;2023-02-15T09:06:06;5.20;;;2.23;;
60030;SDS011;45901;47.600;9.890;2023-02-15T09:08:34;2.87;;;1.67;;
60030;SDS011;45901;47.600;9.890;2023-02-15T09:11:05;3.97;;;2.20;;
60030;SDS011;45901;47.600;9.890;2023-02-15T09:13:35;3.83;;;2.13;;
60030;SDS011;45901;47.600;9.890;2023-02-15T09:16:04;5.30;;;2.80;;
60030;SDS011;45901;47.600;9.890;2023-02-15T09:18:34;4.13;;;2.60;;
60030;SDS011;45901;47.600;9.890;2023-02-15T09:21:05;4.57;;;2.70;;
60030;SDS011;45901;47.600;9.890;2023-02-15T09:23:34;4.53;;;2.43;;
60030;SDS011;45901;47.600;9.890;2023-02-15T09:26:03;5.50;;;2.53;;
60030;SDS011;45901;47.600;9.890;2023-02-15T09:28:32;6.07;;;2.67;;
60030;SDS011;45901;47.600;9.890;2023-02-15T09:31:07;6.73;;;2.87;;
60030;SDS011;45901;47.600;9.890;2023-02-15T09:33:37;4.93;;;2.60;;
60030;SDS011;45901;47.600;9.890;2023-02-15T09:36:13;6.33;;;2.73;;
60030;SDS011;45901;47.600;9.890;2023-02-15T09:38:42;4.63;;;2.60;;
60030;SDS011;45901;47.600;9.890;2023-02-15T09:41:24;6.67;;;2.87;;
60030;SDS011;45901;47.600;9.890;2023-02-15T09:44:11;7.20;;;2.13;;
60030;SDS011;45901;47.600;9.890;2023-02-15T09:46:55;3.67;;;2.10;;
60030;SDS011;45901;47.600;9.890;2023-02-15T09:49:52;6.20;;;2.17;;
60030;SDS011;45901;47.600;9.890;2023-02-15T09:52:33;7.27;;;2.10;;
60030;SDS011;45901;47.600;9.890;2023-02-15T09:55:19;3.27;;;1.80;;
60030;SDS011;45901;47.600;9.890;2023-02-15T09:58:02;4.90;;;2.53;;
60030;SDS011;45901;47.600;9.890;2023-02-15T10:00:40;4.03;;;2.27;;
60030;SDS011;45901;47.600;9.890;2023-02-15T10:03:19;4.73;;;2.20;;
60030;SDS011;45901;47.600;9.890;2023-02-15T10:06:12;5.37;;;2.20;;
60030;SDS011;45901;47.600;9.890;2023-02-15T10:09:02;6.27;;;2.53;;
60030;SDS011;45901;47.600;9.890;2023-02-15T10:11:52;4.10;;;2.40;;
60030;SDS011;45901;47.600;9.890;2023-02-15T10:14:51;4.73;;;2.43;;
60030;SDS011;45901;47.600;9.890;2023-02-15T10:20:52;5.23;;;2.40;;
60030;SDS011;45901;47.600;9.890;2023-02-15T10:23:34;3.03;;;1.97;;
60030;SDS011;45901;47.600;9.890;2023-02-15T10:26:30;3.23;;;1.87;;
60030;SDS011;45901;47.600;9.890;2023-02-15T10:29:08;3.30;;;1.80;;
60030;SDS011;45901;47.600;9.890;2023-02-15T10:31:46;7.27;;;2.70;;
60030;SDS011;45901;47.600;9.890;2023-02-15T10:34:18;4.10;;;1.93;;
60030;SDS011;45901;47.600;9.890;2023-02-15T10:36:52;3.30;;;1.90;;
60030;SDS011;45901;47.600;9.890;2023-02-15T10:39:48;3.10;;;1.93;;
60030;SDS011;45901;47.600;9.890;2023-02-15T10:42:27;3.53;;;1.67;;
60030;SDS011;45901;47.600;9.890;2023-02-15T10:45:12;3.33;;;1.70;;
60030;SDS011;45901;47.600;9.890;2023-02-15T10:47:56;4.13;;;1.53;;
60030;SDS011;45901;47.600;9.890;2023-02-15T10:51:01;2.50;;;0.90;;
60030;SDS011;45901;47.600;9.890;2023-02-15T10:53:45;1.30;;;0.80;;
60030;SDS011;45901;47.600;9.890;2023-02-15T10:56:34;1.73;;;1.00;;
60030;SDS011;45901;47.600;9.890;2023-02-15T10:59:15;2.23;;;0.97;;
60030;SDS011;45901;47.600;9.890;2023-02-15T11:02:00;3.17;;;1.10;;
60030;SDS011;45901;47.600;9.890;2023-02-15T11:04:41;2.73;;;1.10;;
60030;SDS011;45901;47.600;9.890;2023-02-15T11:07:21;3.00;;;1.27;;
60030;SDS011;45901;47.600;9.890;2023-02-15T11:09:54;2.47;;;1.00;;
60030;SDS011;45901;47.600;9.890;2023-02-15T11:12:33;2.70;;;1.00;;
60030;SDS011;45901;47.600;9.890;2023-02-15T11:15:03;1.50;;;0.77;;
60030;SDS011;45901;47.600;9.890;2023-02-15T11:17:43;2.00;;;0.70;;
60030;SDS011;45901;47.600;9.890;2023-02-15T11:20:17;1.63;;;0.47;;
60030;SDS011;45901;47.600;9.890;2023-02-15T11:22:51;3.03;;;0.90;;
60030;SDS011;45901;47.600;9.890;2023-02-15T11:25:20;2.07;;;0.90;;
60030;SDS011;45901;47.600;9.890;2023-02-15T11:27:52;1.03;;;0.70;;
60030;SDS011;45901;47.600;9.890;2023-02-15T11:30:23;1.33;;;0.60;;
60030;SDS011;45901;47.600;9.890;2023-02-15T11:32:54;1.70;;;0.73;;
60030;SDS011;45901;47.600;9.890;2023-02-15T11:35:27;2.50;;;0.70;;
60030;SDS011;45901;47.600;9.890;2023-02-15T11:38:00;1.83;;;0.90;;
60030;SDS011;45901;47.600;9.890;2023-02-15T11:40:40;1.53;;;0.83;;
60030;SDS011;45901;47.600;9.890;2023-02-15T11:43:15;1.40;;;0.83;;
60030;SDS011;45901;47.600;9.890;2023-02-15T11:45:49;1.10;;;0.70;;
60030;SDS011;45901;47.600;9.890;2023-02-15T11:48:16;6.07;;;0.80;;
60030;SDS011;45901;47.600;9.890;2023-02-15T11:50:44;1.73;;;0.90;;
60030;SDS011;45901;47.600;9.890;2023-02-15T11:53:12;3.10;;;1.00;;
60030;SDS011;45901;47.600;9.890;2023-02-15T11:55:41;2.17;;;0.73;;
60030;SDS011;45901;47.600;9.890;2023-02-15T11:58:13;2.93;;;0.93;;
60030;SDS011;45901;47.600;9.890;2023-02-15T12:00:56;1.77;;;0.90;;
60030;SDS011;45901;47.600;9.890;2023-02-15T12:03:31;1.30;;;0.80;;
60030;SDS011;45901;47.600;9.890;2023-02-15T12:06:12;4.87;;;1.97;;
60030;SDS011;45901;47.600;9.890;2023-02-15T12:08:52;5.10;;;3.27;;
60030;SDS011;45901;47.600;9.890;2023-02-15T12:11:29;4.40;;;3.20;;
60030;SDS011;45901;47.600;9.890;2023-02-15T12:14:01;5.83;;;2.93;;
60030;SDS011;45901;47.600;9.890;2023-02-15T12:16:33;6.57;;;2.87;;
60030;SDS011;45901;47.600;9.890;2023-02-15T12:19:12;5.70;;;2.70;;
60030;SDS011;45901;47.600;9.890;2023-02-15T12:21:55;5.40;;;2.90;;
60030;SDS011;45901;47.600;9.890;2023-02-15T12:24:25;5.03;;;2.47;;
60030;SDS011;45901;47.600;9.890;2023-02-15T12:26:56;3.73;;;2.27;;
60030;SDS011;45901;47.600;9.890;2023-02-15T12:29:27;4.10;;;2.03;;
60030;SDS011;45901;47.600;9.890;2023-02-15T12:32:01;6.87;;;2.50;;
60030;SDS011;45901;47.600;9.890;2023-02-15T12:34:45;6.67;;;2.90;;
60030;SDS011;45901;47.600;9.890;2023-02-15T12:37:19;3.87;;;2.10;;
60030;SDS011;45901;47.600;9.890;2023-02-15T12:39:54;3.70;;;2.23;;
60030;SDS011;45901;47.600;9.890;2023-02-15T12:42:49;5.53;;;2.93;;
60030;SDS011;45901;47.600;9.890;2023-02-15T12:45:21;4.43;;;2.63;;
60030;SDS011;45901;47.600;9.890;2023-02-15T12:48:13;4.93;;;2.67;;
60030;SDS011;45901;47.600;9.890;2023-02-15T12:50:43;3.80;;;2.73;;
60030;SDS011;45901;47.600;9.890;2023-02-15T12:53:13;3.97;;;2.27;;
60030;SDS011;45901;47.600;9.890;2023-02-15T12:55:51;4.00;;;2.30;;
60030;SDS011;45901;47.600;9.890;2023-02-15T12:58:21;4.00;;;2.23;;
60030;SDS011;45901;47.600;9.890;2023-02-15T13:01:01;6.40;;;2.70;;
60030;SDS011;45901;47.600;9.890;2023-02-15T13:03:52;5.17;;;2.40;;
60030;SDS011;45901;47.600;9.890;2023-02-15T13:06:24;2.97;;;2.23;;
60030;SDS011;45901;47.600;9.890;2023-02-15T13:08:54;3.83;;;2.40;;
60030;SDS011;45901;47.600;9.890;2023-02-15T13:11:26;5.70;;;2.30;;
60030;SDS011;45901;47.600;9.890;2023-02-15T13:14:02;3.13;;;2.00;;
60030;SDS011;45901;47.600;9.890;2023-02-15T13:16:42;4.40;;;2.40;;
60030;SDS011;45901;47.600;9.890;2023-02-15T13:19:14;4.37;;;2.70;;
60030;SDS011;45901;47.600;9.890;2023-02-15T13:21:45;4.60;;;3.00;;
60030;SDS011;45901;47.600;9.890;2023-02-15T13:24:20;4.97;;;2.90;;
60030;SDS011;45901;47.600;9.890;2023-02-15T13:26:51;5.13;;;3.00;;
60030;SDS011;45901;47.600;9.890;2023-02-15T13:29:24;5.37;;;3.37;;
60030;SDS011;45901;47.600;9.890;2023-02-15T13:31:54;5.40;;;2.90;;
60030;SDS011;45901;47.600;9.890;2023-02-15T13:34:25;13.80;;;8.03;;
60030;SDS011;45901;47.600;9.890;2023-02-15T13:36:59;9.60;;;5.37;;
60030;SDS011;45901;47.600;9.890;2023-02-15T13:39:34;7.40;;;3.60;;
60030;SDS011;45901;47.600;9.890;2023-02-15T13:42:14;5.40;;;2.93;;
60030;SDS011;45901;47.600;9.890;2023-02-15T13:45:02;4.80;;;3.20;;
60030;SDS011;45901;47.600;9.890;2023-02-15T13:47:43;5.17;;;3.30;;
60030;SDS011;45901;47.600;9.890;2023-02-15T13:50:28;5.60;;;3.37;;
60030;SDS011;45901;47.600;9.890;2023-02-15T13:53:18;8.43;;;4.03;;
60030;SDS011;45901;47.600;9.890;2023-02-15T13:56:05;5.20;;;3.33;;
60030;SDS011;45901;47.600;9.890;2023-02-15T13:58:59;8.37;;;4.37;;
60030;SDS011;45901;47.600;9.890;2023-02-15T14:02:30;13.30;;;4.17;;
60030;SDS011;45901;47.600;9.890;2023-02-15T14:05:37;6.10;;;3.73;;
60030;SDS011;45901;47.600;9.890;2023-02-15T14:08:39;9.53;;;5.17;;
60030;SDS011;45901;47.600;9.890;2023-02-15T14:11:47;8.90;;;5.40;;
60030;SDS011;45901;47.600;9.890;2023-02-15T14:14:40;8.10;;;4.63;;
60030;SDS011;45901;47.600;9.890;2023-02-15T14:17:29;11.47;;;4.77;;
60030;SDS011;45901;47.600;9.890;2023-02-15T14:20:14;8.63;;;4.63;;
60030;SDS011;45901;47.600;9.890;2023-02-15T14:22:50;12.87;;;5.23;;
60030;SDS011;45901;47.600;9.890;2023-02-15T14:25:32;6.97;;;4.60;;
60030;SDS011;45901;47.600;9.890;2023-02-15T14:28:05;8.37;;;5.17;;
60030;SDS011;45901;47.600;9.890;2023-02-15T14:30:40;8.83;;;5.50;;
60030;SDS011;45901;47.600;9.890;2023-02-15T14:33:19;8.80;;;5.40;;
60030;SDS011;45901;47.600;9.890;2023-02-15T14:36:00;11.17;;;5.10;;
60030;SDS011;45901;47.600;9.890;2023-02-15T14:38:37;9.70;;;5.47;;
60030;SDS011;45901;47.600;9.890;2023-02-15T14:41:23;7.60;;;5.03;;
60030;SDS011;45901;47.600;9.890;2023-02-15T14:43:59;9.63;;;5.17;;
60030;SDS011;45901;47.600;9.890;2023-02-15T14:46:38;9.47;;;5.77;;
60030;SDS011;45901;47.600;9.890;2023-02-15T14:49:13;12.10;;;5.47;;
60030;SDS011;45901;47.600;9.890;2023-02-15T14:54:55;14.30;;;5.83;;
60030;SDS011;45901;47.600;9.890;2023-02-15T14:57:28;13.60;;;6.10;;
60030;SDS011;45901;47.600;9.890;2023-02-15T15:00:00;14.07;;;6.07;;
60030;SDS011;45901;47.600;9.890;2023-02-15T15:03:00;10.53;;;6.23;;
60030;SDS011;45901;47.600;9.890;2023-02-15T15:05:47;11.47;;;6.17;;
60030;SDS011;45901;47.600;9.890;2023-02-15T15:08:22;11.47;;;5.97;;
60030;SDS011;45901;47.600;9.890;2023-02-15T15:11:11;9.47;;;6.00;;
60030;SDS011;45901;47.600;9.890;2023-02-15T15:17:09;9.90;;;6.83;;
60030;SDS011;45901;47.600;9.890;2023-02-15T15:22:38;14.93;;;5.83;;
60030;SDS011;45901;47.600;9.890;2023-02-15T15:25:10;9.10;;;5.60;;
60030;SDS011;45901;47.600;9.890;2023-02-15T15:27:55;11.47;;;5.73;;
60030;SDS011;45901;47.600;9.890;2023-02-15T15:37:05;8.77;;;5.13;;
60030;SDS011;45901;47.600;9.890;2023-02-15T15:40:44;8.30;;;4.47;;
60030;SDS011;45901;47.600;9.890;2023-02-15T15:48:26;8.90;;;4.33;;
60030;SDS011;45901;47.600;9.890;2023-02-15T15:51:02;11.63;;;5.10;;
60030;SDS011;45901;47.600;9.890;2023-02-15T15:53:37;9.57;;;5.33;;